createdAt,value
2019-04-25T00:00:13.668Z,12.20
2019-04-25T00:02:45.333Z,12.20
2019-04-25T00:05:14.699Z,12.20
2019-04-25T00:07:43.916Z,12.10
2019-04-25T00:10:13.774Z,12.10
2019-04-25T00:12:43.593Z,12.00
2019-04-25T00:15:14.528Z,11.80
2019-04-25T00:17:44.450Z,11.80
2019-04-25T00:20:13.771Z,11.70
2019-04-25T00:23:02.019Z,11.60
2019-04-25T00:25:48.313Z,11.50
2019-04-25T00:28:18.289Z,11.40
2019-04-25T00:30:48.050Z,11.30
2019-04-25T00:33:17.138Z,11.20
2019-04-25T00:35:46.116Z,11.20
2019-04-25T00:38:15.145Z,11.10
2019-04-25T00:40:44.735Z,11.10
2019-04-25T00:43:13.833Z,11.00
2019-04-25T00:45:44.341Z,11.00
2019-04-25T00:48:13.531Z,10.90
2019-04-25T00:50:43.352Z,10.90
2019-04-25T00:53:13.310Z,10.90
2019-04-25T00:55:43.097Z,10.90
2019-04-25T00:58:13.807Z,10.90
2019-04-25T01:00:47.374Z,10.90
2019-04-25T01:03:27.271Z,10.90
2019-04-25T01:05:56.299Z,10.80
2019-04-25T01:08:26.369Z,10.80
2019-04-25T01:10:55.410Z,10.80
2019-04-25T01:13:24.329Z,10.70
2019-04-25T01:15:53.755Z,10.50
2019-04-25T01:18:23.159Z,10.40
2019-04-25T01:20:53.597Z,10.40
2019-04-25T01:23:23.769Z,10.40
2019-04-25T01:25:54.457Z,10.30
2019-04-25T01:28:24.380Z,10.20
2019-04-25T01:30:54.993Z,10.20
2019-04-25T01:33:25.408Z,10.20
2019-04-25T01:35:56.924Z,10.10
2019-04-25T01:38:27.678Z,10.10
2019-04-25T01:41:04.116Z,10.10
2019-04-25T01:43:57.096Z,10.10
2019-04-25T01:46:24.309Z,10.10
2019-04-25T01:48:54.491Z,10.00
2019-04-25T01:51:24.142Z,10.00
2019-04-25T01:53:54.568Z,9.90
2019-04-25T01:56:24.784Z,9.80
2019-04-25T01:58:54.763Z,9.70
2019-04-25T02:01:24.192Z,9.70
2019-04-25T02:03:55.541Z,9.70
2019-04-25T02:06:24.817Z,9.60
2019-04-25T02:08:56.166Z,9.70
2019-04-25T02:11:26.399Z,9.70
2019-04-25T02:13:55.853Z,9.70
2019-04-25T02:16:25.957Z,9.70
2019-04-25T02:18:55.542Z,9.70
2019-04-25T02:21:25.356Z,9.60
2019-04-25T02:23:55.543Z,9.60
2019-04-25T02:26:25.033Z,9.60
2019-04-25T02:28:55.210Z,9.60
2019-04-25T02:31:25.059Z,9.60
2019-04-25T02:33:57.853Z,9.60
2019-04-25T02:36:24.802Z,9.60
2019-04-25T02:38:57.544Z,9.60
2019-04-25T02:41:25.090Z,9.60
2019-04-25T02:43:56.315Z,9.70
2019-04-25T02:46:29.106Z,9.70
2019-04-25T02:49:29.768Z,9.70
2019-04-25T02:51:56.158Z,9.70
2019-04-25T02:54:24.576Z,9.70
2019-04-25T02:56:54.705Z,9.70
2019-04-25T02:59:25.345Z,9.60
2019-04-25T03:01:54.627Z,9.60
2019-04-25T03:04:24.126Z,9.60
2019-04-25T03:06:55.364Z,9.60
2019-04-25T03:09:24.967Z,9.50
2019-04-25T03:11:54.773Z,9.50
2019-04-25T03:14:26.395Z,9.40
2019-04-25T03:16:54.945Z,9.30
2019-04-25T03:19:44.120Z,9.20
2019-04-25T03:22:17.192Z,9.10
2019-04-25T03:24:46.142Z,9.10
2019-04-25T03:27:16.839Z,9.10
2019-04-25T03:29:47.115Z,9.00
2019-04-25T03:32:19.693Z,9.00
2019-04-25T03:34:46.959Z,9.00
2019-04-25T03:37:15.896Z,9.00
2019-04-25T03:39:44.842Z,9.00
2019-04-25T03:42:14.103Z,8.90
2019-04-25T03:44:43.829Z,9.00
2019-04-25T03:47:13.547Z,8.90
2019-04-25T03:49:43.481Z,8.90
2019-04-25T03:52:14.143Z,8.90
2019-04-25T03:54:43.442Z,8.90
2019-04-25T03:57:14.483Z,8.90
2019-04-25T03:59:43.809Z,8.90
2019-04-25T04:02:13.503Z,8.90
2019-04-25T04:04:43.565Z,8.80
2019-04-25T04:07:14.336Z,8.80
2019-04-25T04:09:43.584Z,8.80
2019-04-25T04:12:12.594Z,8.80
2019-04-25T04:14:41.542Z,8.80
2019-04-25T04:17:29.991Z,8.80
2019-04-25T04:20:00.734Z,8.80
2019-04-25T04:22:35.795Z,8.80
2019-04-25T04:25:07.581Z,8.80
2019-04-25T04:27:36.603Z,8.80
2019-04-25T04:30:09.023Z,8.80
2019-04-25T04:32:38.844Z,8.80
2019-04-25T04:35:08.668Z,8.80
2019-04-25T04:37:37.651Z,8.90
2019-04-25T04:40:09.613Z,8.90
2019-04-25T04:42:38.690Z,9.00
2019-04-25T04:45:08.478Z,9.00
2019-04-25T04:47:37.508Z,9.00
2019-04-25T04:50:06.708Z,9.10
2019-04-25T04:52:35.654Z,9.10
2019-04-25T04:55:09.729Z,9.10
2019-04-25T04:57:38.570Z,9.20
2019-04-25T05:00:08.006Z,9.20
2019-04-25T05:02:38.678Z,9.20
2019-04-25T05:05:16.913Z,9.30
2019-04-25T05:07:56.579Z,9.30
2019-04-25T05:10:25.590Z,9.40
2019-04-25T05:12:54.623Z,9.50
2019-04-25T05:15:24.761Z,9.50
2019-04-25T05:17:54.302Z,9.50
2019-04-25T05:20:24.174Z,9.60
2019-04-25T05:22:54.838Z,9.60
2019-04-25T05:25:24.718Z,9.70
2019-04-25T05:28:02.016Z,9.70
2019-04-25T05:30:28.638Z,9.80
2019-04-25T05:32:57.600Z,9.90
2019-04-25T05:35:26.529Z,10.00
2019-04-25T05:37:55.488Z,10.10
2019-04-25T05:40:25.356Z,10.10
2019-04-25T05:42:58.559Z,10.20
2019-04-25T05:45:31.732Z,10.30
2019-04-25T05:48:00.811Z,10.30
2019-04-25T05:50:29.731Z,10.40
2019-04-25T05:52:58.706Z,10.50
2019-04-25T05:55:27.636Z,10.60
2019-04-25T05:57:56.609Z,10.70
2019-04-25T06:00:26.059Z,10.90
2019-04-25T06:02:55.859Z,11.10
2019-04-25T06:05:26.480Z,11.20
2019-04-25T06:07:55.558Z,11.40
2019-04-25T06:10:29.098Z,11.60
2019-04-25T06:13:15.557Z,11.80
2019-04-25T06:15:46.151Z,12.00
2019-04-25T06:18:28.773Z,12.10
2019-04-25T06:20:57.738Z,12.20
2019-04-25T06:23:37.051Z,12.30
2019-04-25T06:26:19.212Z,12.40
2019-04-25T06:28:49.006Z,12.50
2019-04-25T06:31:10.306Z,12.60
2019-04-25T06:33:38.327Z,12.80
2019-04-25T06:36:07.483Z,13.00
2019-04-25T06:38:36.539Z,13.20
2019-04-25T06:41:05.640Z,13.30
2019-04-25T06:43:36.474Z,13.50
2019-04-25T06:46:24.829Z,13.70
2019-04-25T06:48:58.932Z,13.90
2019-04-25T06:51:46.131Z,13.90
2019-04-25T06:54:15.143Z,14.00
2019-04-25T06:56:44.105Z,14.10
2019-04-25T06:59:13.591Z,14.20
2019-04-25T07:01:43.989Z,14.30
2019-04-25T07:04:14.071Z,14.30
2019-04-25T07:06:45.433Z,14.50
2019-04-25T07:09:14.765Z,14.60
2019-04-25T07:11:44.139Z,14.70
2019-04-25T07:14:14.211Z,14.80
2019-04-25T07:16:43.436Z,14.90
2019-04-25T07:19:14.270Z,15.00
2019-04-25T07:21:44.388Z,15.20
2019-04-25T07:24:14.508Z,15.20
2019-04-25T07:26:45.867Z,15.30
2019-04-25T07:29:26.018Z,15.40
2019-04-25T07:32:00.656Z,15.60
2019-04-25T07:34:30.726Z,15.80
2019-04-25T07:36:59.798Z,16.00
2019-04-25T07:39:29.583Z,16.20
2019-04-25T07:41:58.699Z,16.50
2019-04-25T07:44:39.500Z,16.60
2019-04-25T07:46:58.487Z,16.80
2019-04-25T07:49:28.507Z,17.10
2019-04-25T07:51:57.599Z,17.30
2019-04-25T07:54:27.872Z,17.60
2019-04-25T07:56:59.802Z,17.80
2019-04-25T07:59:29.034Z,17.70
2019-04-25T08:01:58.088Z,17.50
2019-04-25T08:04:27.630Z,17.30
2019-04-25T08:06:56.750Z,17.20
2019-04-25T08:09:25.705Z,17.00
2019-04-25T08:11:54.916Z,16.90
2019-04-25T08:14:28.586Z,16.80
2019-04-25T08:16:59.504Z,16.80
2019-04-25T08:19:29.638Z,16.90
2019-04-25T08:21:58.972Z,16.90
2019-04-25T08:24:28.363Z,16.80
2019-04-25T08:26:58.329Z,16.70
2019-04-25T08:29:27.440Z,16.80
2019-04-25T08:31:56.450Z,17.10
2019-04-25T08:34:25.584Z,17.60
2019-04-25T08:36:54.543Z,18.00
2019-04-25T08:39:24.064Z,18.30
2019-04-25T08:41:57.968Z,18.70
2019-04-25T08:44:24.257Z,19.10
2019-04-25T08:46:53.678Z,19.40
2019-04-25T08:49:27.361Z,19.70
2019-04-25T08:51:57.522Z,19.70
2019-04-25T08:54:28.164Z,19.70
2019-04-25T08:56:58.890Z,19.50
2019-04-25T08:59:47.277Z,19.10
2019-04-25T09:02:13.897Z,19.00
2019-04-25T09:04:44.939Z,19.00
2019-04-25T09:07:13.922Z,19.10
2019-04-25T09:09:43.979Z,19.10
2019-04-25T09:12:14.031Z,19.00
2019-04-25T09:14:46.303Z,19.00
2019-04-25T09:17:14.283Z,18.90
2019-04-25T09:19:44.442Z,18.90
2019-04-25T09:22:13.932Z,18.70
2019-04-25T09:24:44.396Z,18.70
2019-04-25T09:27:15.519Z,18.50
2019-04-25T09:29:45.241Z,18.50
2019-04-25T09:32:14.967Z,18.60
2019-04-25T09:34:43.952Z,19.00
2019-04-25T09:37:14.263Z,19.20
2019-04-25T09:39:47.660Z,19.40
2019-04-25T09:42:16.807Z,19.80
2019-04-25T09:45:03.843Z,20.10
2019-04-25T09:47:33.558Z,20.20
2019-04-25T09:50:04.305Z,20.70
2019-04-25T09:52:34.051Z,20.90
2019-04-25T09:55:13.354Z,20.60
2019-04-25T09:58:00.141Z,20.40
2019-04-25T10:00:40.412Z,20.20
2019-04-25T10:03:09.621Z,20.20
2019-04-25T10:05:38.727Z,20.00
2019-04-25T10:08:07.744Z,19.80
2019-04-25T10:10:36.817Z,19.70
2019-04-25T10:13:06.604Z,19.90
2019-04-25T10:15:56.786Z,20.20
2019-04-25T10:18:25.768Z,20.40
2019-04-25T10:20:54.904Z,20.40
2019-04-25T10:23:24.117Z,20.50
2019-04-25T10:25:53.793Z,20.50
2019-04-25T10:28:23.431Z,20.90
2019-04-25T10:30:53.117Z,20.90
2019-04-25T10:33:24.892Z,20.60
2019-04-25T10:35:59.502Z,20.50
2019-04-25T10:38:27.127Z,20.60
2019-04-25T10:40:57.231Z,20.60
2019-04-25T10:43:26.396Z,20.40
2019-04-25T10:45:55.363Z,20.20
2019-04-25T10:48:25.836Z,20.20
2019-04-25T10:50:55.744Z,20.20
2019-04-25T10:53:25.288Z,20.50
2019-04-25T10:55:54.271Z,21.10
2019-04-25T10:58:23.304Z,22.20
2019-04-25T11:00:53.348Z,23.60
2019-04-25T11:03:40.772Z,25.30
2019-04-25T11:06:10.614Z,25.90
2019-04-25T11:08:40.422Z,25.40
2019-04-25T11:11:10.499Z,24.20
2019-04-25T11:13:39.844Z,23.20
2019-04-25T11:16:09.716Z,23.30
2019-04-25T11:18:38.766Z,23.80
2019-04-25T11:21:07.782Z,23.80
2019-04-25T11:23:36.816Z,24.20
2019-04-25T11:26:05.805Z,25.50
2019-04-25T11:28:35.405Z,27.30
2019-04-25T11:31:06.046Z,28.20
2019-04-25T11:33:35.746Z,28.90
2019-04-25T11:36:05.117Z,29.20
2019-04-25T11:38:35.872Z,28.90
2019-04-25T11:41:09.270Z,29.10
2019-04-25T11:43:38.232Z,29.60
2019-04-25T11:46:07.383Z,30.10
2019-04-25T11:48:36.483Z,29.60
2019-04-25T11:51:06.016Z,28.80
2019-04-25T11:53:34.987Z,27.80
2019-04-25T11:56:04.138Z,26.60
2019-04-25T11:58:33.303Z,25.70
2019-04-25T12:01:03.423Z,24.90
2019-04-25T12:03:33.700Z,24.70
2019-04-25T12:06:02.636Z,24.30
2019-04-25T12:08:31.626Z,23.90
2019-04-25T12:11:00.712Z,23.50
2019-04-25T12:13:29.758Z,23.20
2019-04-25T12:16:00.387Z,23.20
2019-04-25T12:18:29.458Z,23.60
2019-04-25T12:20:58.431Z,24.00
2019-04-25T12:23:27.439Z,24.30
2019-04-25T12:25:56.532Z,24.00
2019-04-25T12:28:25.553Z,23.70
2019-04-25T12:30:55.331Z,23.60
2019-04-25T12:33:25.360Z,23.60
2019-04-25T12:35:55.378Z,23.50
2019-04-25T12:38:24.952Z,23.50
2019-04-25T12:40:54.391Z,23.50
2019-04-25T12:43:28.276Z,23.60
2019-04-25T12:46:17.127Z,23.80
2019-04-25T12:48:46.106Z,23.90
2019-04-25T12:51:15.255Z,24.00
2019-04-25T12:53:44.255Z,24.10
2019-04-25T12:56:13.287Z,24.00
2019-04-25T12:58:43.482Z,24.10
2019-04-25T13:01:12.794Z,24.10
2019-04-25T13:03:41.761Z,23.70
2019-04-25T13:06:10.872Z,23.30
2019-04-25T13:08:39.841Z,23.00
2019-04-25T13:11:10.506Z,22.80
2019-04-25T13:13:39.660Z,22.70
2019-04-25T13:16:08.705Z,22.70
2019-04-25T13:18:37.808Z,22.80
2019-04-25T13:21:07.743Z,22.90
2019-04-25T13:23:36.769Z,23.00
2019-04-25T13:26:05.866Z,22.90
2019-04-25T13:28:54.101Z,22.90
2019-04-25T13:31:36.644Z,22.90
2019-04-25T13:34:09.780Z,23.00
2019-04-25T13:36:38.963Z,23.10
2019-04-25T13:39:10.079Z,23.10
2019-04-25T13:41:39.155Z,23.30
2019-04-25T13:44:09.029Z,23.20
2019-04-25T13:46:38.298Z,23.30
2019-04-25T13:49:07.306Z,23.20
2019-04-25T13:51:36.408Z,23.20
2019-04-25T13:54:05.653Z,23.20
2019-04-25T13:56:40.169Z,23.20
2019-04-25T13:59:06.065Z,23.10
2019-04-25T14:01:35.082Z,23.20
2019-04-25T14:04:04.883Z,23.50
2019-04-25T14:06:33.893Z,24.00
2019-04-25T14:09:04.508Z,24.90
2019-04-25T14:11:34.546Z,25.30
2019-04-25T14:14:04.491Z,26.30
2019-04-25T14:16:41.186Z,25.90
2019-04-25T14:19:32.954Z,25.30
2019-04-25T14:22:04.373Z,24.80
2019-04-25T14:24:35.730Z,24.10
2019-04-25T14:27:04.599Z,23.90
2019-04-25T14:29:34.745Z,23.90
2019-04-25T14:32:05.742Z,24.00
2019-04-25T14:34:34.725Z,24.00
2019-04-25T14:37:03.835Z,23.80
2019-04-25T14:39:33.366Z,23.80
2019-04-25T14:42:02.523Z,23.80
2019-04-25T14:44:31.513Z,23.90
2019-04-25T14:47:00.465Z,24.20
2019-04-25T14:49:30.420Z,24.90
2019-04-25T14:51:59.626Z,25.80
2019-04-25T14:54:30.685Z,26.80
2019-04-25T14:57:07.349Z,28.10
2019-04-25T14:59:36.450Z,29.10
2019-04-25T15:02:05.624Z,29.50
2019-04-25T15:04:35.301Z,29.50
2019-04-25T15:07:04.438Z,29.00
2019-04-25T15:09:33.400Z,29.00
2019-04-25T15:12:02.418Z,29.30
2019-04-25T15:14:31.490Z,29.30
2019-04-25T15:17:00.542Z,29.10
2019-04-25T15:19:29.695Z,28.10
2019-04-25T15:21:58.687Z,27.10
2019-04-25T15:24:27.693Z,26.50
2019-04-25T15:26:57.039Z,26.00
2019-04-25T15:29:26.558Z,26.10
2019-04-25T15:31:56.298Z,26.70
2019-04-25T15:34:27.676Z,26.80
2019-04-25T15:36:58.322Z,26.50
2019-04-25T15:39:35.278Z,26.50
2019-04-25T15:42:21.841Z,26.30
2019-04-25T15:45:04.444Z,25.90
2019-04-25T15:47:34.066Z,25.30
2019-04-25T15:50:04.541Z,25.00
2019-04-25T15:52:33.865Z,24.90
2019-04-25T15:55:07.291Z,24.80
2019-04-25T15:57:34.503Z,24.90
2019-04-25T16:00:08.728Z,24.90
2019-04-25T16:02:37.727Z,24.70
2019-04-25T16:05:08.118Z,24.40
2019-04-25T16:07:37.730Z,24.20
2019-04-25T16:10:08.119Z,24.20
2019-04-25T16:12:37.384Z,24.00
2019-04-25T16:15:07.292Z,23.90
2019-04-25T16:17:37.102Z,23.70
2019-04-25T16:20:06.810Z,23.60
2019-04-25T16:22:36.554Z,23.50
2019-04-25T16:25:07.001Z,23.50
2019-04-25T16:27:36.626Z,23.50
2019-04-25T16:30:07.910Z,23.50
2019-04-25T16:32:36.823Z,23.40
2019-04-25T16:35:06.905Z,23.30
2019-04-25T16:37:36.852Z,23.30
2019-04-25T16:40:06.111Z,23.30
2019-04-25T16:42:35.921Z,23.30
2019-04-25T16:45:06.905Z,23.30
2019-04-25T16:47:37.325Z,23.30
2019-04-25T16:50:09.803Z,23.20
2019-04-25T16:52:38.842Z,23.20
2019-04-25T16:55:09.563Z,23.20
2019-04-25T16:57:39.582Z,23.20
2019-04-25T17:00:14.750Z,23.20
2019-04-25T17:02:43.798Z,23.20
2019-04-25T17:05:12.999Z,23.10
2019-04-25T17:07:41.967Z,23.10
2019-04-25T17:10:11.250Z,23.10
2019-04-25T17:12:42.324Z,23.00
2019-04-25T17:15:23.323Z,22.90
2019-04-25T17:18:08.930Z,22.90
2019-04-25T17:20:39.721Z,22.80
2019-04-25T17:23:09.279Z,22.80
2019-04-25T17:25:38.345Z,22.70
2019-04-25T17:28:07.521Z,22.70
2019-04-25T17:30:38.248Z,22.60
2019-04-25T17:33:25.266Z,22.50
2019-04-25T17:35:55.992Z,22.40
2019-04-25T17:38:35.715Z,22.30
2019-04-25T17:41:04.900Z,22.20
2019-04-25T17:43:34.631Z,22.10
2019-04-25T17:46:05.545Z,22.00
2019-04-25T17:48:34.597Z,22.00
2019-04-25T17:51:03.593Z,21.90
2019-04-25T17:53:33.066Z,21.80
2019-04-25T17:56:02.196Z,21.80
2019-04-25T17:58:31.153Z,21.70
2019-04-25T18:01:00.161Z,21.70
2019-04-25T18:03:29.295Z,21.60
2019-04-25T18:05:58.298Z,21.50
2019-04-25T18:08:27.332Z,21.50
2019-04-25T18:10:56.267Z,21.40
2019-04-25T18:13:25.242Z,21.20
2019-04-25T18:15:55.901Z,21.20
2019-04-25T18:18:45.555Z,21.10
2019-04-25T18:21:14.738Z,21.00
2019-04-25T18:24:01.347Z,20.90
2019-04-25T18:26:41.345Z,20.80
2019-04-25T18:29:12.018Z,20.70
2019-04-25T18:31:41.609Z,20.60
2019-04-25T18:34:12.470Z,20.60
2019-04-25T18:36:52.077Z,20.50
2019-04-25T18:39:25.737Z,20.50
2019-04-25T18:41:59.041Z,20.50
2019-04-25T18:44:28.024Z,20.40
2019-04-25T18:46:58.475Z,20.40
2019-04-25T18:49:27.577Z,20.30
2019-04-25T18:51:58.385Z,20.30
2019-04-25T18:54:34.526Z,20.20
2019-04-25T18:57:07.887Z,20.10
2019-04-25T18:59:54.436Z,20.00
2019-04-25T19:02:27.646Z,19.90
2019-04-25T19:05:14.415Z,19.80
2019-04-25T19:07:43.441Z,19.70
2019-04-25T19:10:12.964Z,19.60
2019-04-25T19:12:43.112Z,19.50
2019-04-25T19:15:12.299Z,19.30
2019-04-25T19:17:41.409Z,19.20
2019-04-25T19:20:10.612Z,19.10
2019-04-25T19:22:40.257Z,19.10
2019-04-25T19:25:09.385Z,19.00
2019-04-25T19:27:38.448Z,19.00
2019-04-25T19:30:09.526Z,19.00
2019-04-25T19:32:38.565Z,18.90
2019-04-25T19:35:07.866Z,18.90
2019-04-25T19:37:39.474Z,18.90
2019-04-25T19:40:10.770Z,18.90
2019-04-25T19:42:42.277Z,18.90
2019-04-25T19:45:11.386Z,18.90
2019-04-25T19:47:41.342Z,18.80
2019-04-25T19:50:13.201Z,18.80
2019-04-25T19:52:42.842Z,18.80
2019-04-25T19:55:12.927Z,18.70
2019-04-25T19:57:44.958Z,18.60
2019-04-25T20:00:16.540Z,18.50
2019-04-25T20:02:50.783Z,18.40
2019-04-25T20:05:21.470Z,18.40
2019-04-25T20:08:00.726Z,18.40
2019-04-25T20:10:33.827Z,18.40
2019-04-25T20:13:04.141Z,18.50
2019-04-25T20:15:33.133Z,18.60
2019-04-25T20:18:02.203Z,18.80
2019-04-25T20:20:31.288Z,18.70
2019-04-25T20:23:00.328Z,18.40
2019-04-25T20:25:29.284Z,18.10
2019-04-25T20:27:58.319Z,17.70
2019-04-25T20:30:27.343Z,17.50
2019-04-25T20:32:59.038Z,17.30
2019-04-25T20:35:27.993Z,17.00
2019-04-25T20:37:57.000Z,16.80
2019-04-25T20:40:25.978Z,16.70
2019-04-25T20:42:54.976Z,16.60
2019-04-25T20:45:24.728Z,16.50
2019-04-25T20:47:54.702Z,16.40
2019-04-25T20:50:25.326Z,16.30
2019-04-25T20:52:54.943Z,16.30
2019-04-25T20:55:24.084Z,16.20
2019-04-25T20:57:53.275Z,16.20
2019-04-25T21:00:41.774Z,16.20
2019-04-25T21:03:10.773Z,16.00
2019-04-25T21:05:40.272Z,16.00
2019-04-25T21:08:09.244Z,16.00
2019-04-25T21:10:38.338Z,15.90
2019-04-25T21:13:08.974Z,15.90
2019-04-25T21:15:52.143Z,15.80
2019-04-25T21:18:25.402Z,15.70
2019-04-25T21:20:55.003Z,15.70
2019-04-25T21:23:24.003Z,15.70
2019-04-25T21:25:53.062Z,15.60
2019-04-25T21:28:22.072Z,15.50
2019-04-25T21:30:51.399Z,15.50
2019-04-25T21:33:20.785Z,15.50
2019-04-25T21:35:50.842Z,15.40
2019-04-25T21:38:20.228Z,15.40
2019-04-25T21:41:09.641Z,15.40
2019-04-25T21:43:42.991Z,15.30
2019-04-25T21:46:12.291Z,15.30
2019-04-25T21:48:41.517Z,15.30
2019-04-25T21:51:28.285Z,15.30
2019-04-25T21:53:57.307Z,15.20
2019-04-25T21:56:26.709Z,15.20
2019-04-25T21:58:58.104Z,15.20
2019-04-25T22:01:30.193Z,15.10
2019-04-25T22:03:59.146Z,15.10
2019-04-25T22:06:28.696Z,15.00
2019-04-25T22:08:58.682Z,15.00
2019-04-25T22:11:27.922Z,14.90
2019-04-25T22:13:57.391Z,14.90
2019-04-25T22:16:26.797Z,14.80
2019-04-25T22:18:56.455Z,14.80
2019-04-25T22:21:37.438Z,14.70
2019-04-25T22:24:05.966Z,14.70
2019-04-25T22:26:27.406Z,14.70
2019-04-25T22:28:59.452Z,14.70
2019-04-25T22:31:30.137Z,14.60
2019-04-25T22:34:01.636Z,14.60
2019-04-25T22:36:31.023Z,14.50
2019-04-25T22:39:14.865Z,14.50
2019-04-25T22:41:47.177Z,14.40
2019-04-25T22:44:17.941Z,14.40
2019-04-25T22:46:47.664Z,14.30
2019-04-25T22:49:16.764Z,14.30
2019-04-25T22:51:48.513Z,14.30
2019-04-25T22:54:17.840Z,14.20
2019-04-25T22:56:46.798Z,14.20
2019-04-25T22:59:16.034Z,14.20
2019-04-25T23:01:52.628Z,14.20
2019-04-25T23:04:23.259Z,14.10
2019-04-25T23:06:52.379Z,14.10
2019-04-25T23:09:21.396Z,14.10
2019-04-25T23:11:50.617Z,14.10
2019-04-25T23:14:20.012Z,14.10
2019-04-25T23:16:49.010Z,14.10
2019-04-25T23:19:17.972Z,14.00
2019-04-25T23:21:47.216Z,14.00
2019-04-25T23:24:17.922Z,14.00
2019-04-25T23:26:57.411Z,14.00
2019-04-25T23:29:27.710Z,14.00
2019-04-25T23:31:56.764Z,14.00
2019-04-25T23:34:26.021Z,13.90
2019-04-25T23:36:55.058Z,13.90
2019-04-25T23:39:24.305Z,13.80
2019-04-25T23:41:53.329Z,13.70
2019-04-25T23:44:22.427Z,13.60
2019-04-25T23:46:52.465Z,13.60
2019-04-25T23:49:23.053Z,13.60
2019-04-25T23:51:52.302Z,13.60
2019-04-25T23:54:21.274Z,13.50
2019-04-25T23:56:50.283Z,13.50
2019-04-25T23:59:19.266Z,13.50
